Time;durP1;ratioP1;P1;durP2;ratioP2;P2;SDS_P1;SDS_P2;PMS_P1;PMS_P2;Temp;Humidity;BMP_temperature;BMP_pressure;BME280_temperature;BME280_humidity;BME280_pressure;Samples;Min_cycle;Max_cycle;Signal;HPM_P1;HPM_P2
2022/03/29 00:02:01;;;;;;;37.20;21.70;;;;;;;9.97;52.84;100781.25;4982389;28;20248;-83
2022/03/29 00:04:27;;;;;;;40.50;21.52;;;;;;;10.01;52.29;100769.38;4982525;28;20049;-83
2022/03/29 00:06:54;;;;;;;41.97;21.77;;;;;;;9.63;53.04;100775.78;4983453;28;20022;-83
2022/03/29 00:09:20;;;;;;;40.80;21.77;;;;;;;9.62;53.67;100780.25;4998258;28;20073;-83
2022/03/29 00:11:46;;;;;;;41.78;22.50;;;;;;;9.67;53.53;100771.88;4998906;28;20042;-82
2022/03/29 00:14:12;;;;;;;40.80;21.02;;;;;;;9.67;53.79;100762.13;4999640;28;20042;-82
2022/03/29 00:16:39;;;;;;;43.72;21.65;;;;;;;9.49;54.33;100784.22;4998407;28;20097;-84
2022/03/29 00:19:08;;;;;;;41.38;23.70;;;;;;;9.64;54.14;100767.72;4999270;28;20505;-82
2022/03/29 00:21:34;;;;;;;38.92;22.52;;;;;;;9.64;54.53;100758.94;4981458;28;20034;-83
2022/03/29 00:24:00;;;;;;;41.65;22.10;;;;;;;9.44;55.23;100765.34;4999286;28;20104;-83
2022/03/29 00:26:25;;;;;;;42.28;22.40;;;;;;;9.03;56.26;100775.44;4982497;28;20062;-83
2022/03/29 00:28:52;;;;;;;42.67;23.67;;;;;;;9.37;55.03;100764.25;4998909;28;20076;-85
2022/03/29 00:31:19;;;;;;;45.53;23.85;;;;;;;9.07;56.70;100760.09;4981459;28;20034;-83
2022/03/29 00:33:46;;;;;;;40.67;21.23;;;;;;;8.91;57.34;100766.03;4997917;28;20497;-84
2022/03/29 00:36:13;;;;;;;49.58;23.67;;;;;;;8.88;57.40;100762.84;5000949;28;20039;-85
2022/03/29 00:38:39;;;;;;;41.08;22.30;;;;;;;9.08;56.29;100753.84;4981739;28;20038;-85
2022/03/29 00:41:05;;;;;;;41.92;22.70;;;;;;;8.99;56.74;100755.53;4999743;28;20062;-83
2022/03/29 00:43:31;;;;;;;48.03;23.40;;;;;;;9.00;56.57;100756.38;5000147;28;20034;-83
2022/03/29 00:45:57;;;;;;;44.67;22.48;;;;;;;8.88;57.11;100763.69;4998609;28;20076;-84
2022/03/29 00:48:26;;;;;;;45.38;22.30;;;;;;;9.04;56.69;100757.75;4998749;28;20049;-83
2022/03/29 00:50:53;;;;;;;42.47;22.08;;;;;;;9.32;56.11;100741.72;4983176;28;20039;-83
2022/03/29 00:53:22;;;;;;;45.80;22.55;;;;;;;9.25;55.69;100750.38;4984328;28;20030;-82
2022/03/29 00:55:54;;;;;;;42.72;22.92;;;;;;;9.27;55.65;100740.50;4997237;28;20038;-83
2022/03/29 00:58:20;;;;;;;43.80;22.92;;;;;;;9.43;55.54;100742.50;5003191;28;20042;-82
2022/03/29 01:00:47;;;;;;;52.88;22.25;;;;;;;9.46;55.18;100748.31;5002224;28;20034;-82
2022/03/29 01:03:15;;;;;;;39.65;21.33;;;;;;;9.51;54.55;100738.09;5000380;28;20038;-84
2022/03/29 01:05:41;;;;;;;46.95;22.27;;;;;;;9.62;54.89;100743.19;5000069;28;20042;-84
2022/03/29 01:08:13;;;;;;;40.70;22.00;;;;;;;9.53;55.14;100744.09;4966977;28;20043;-85
2022/03/29 01:10:39;;;;;;;43.95;22.67;;;;;;;9.72;53.98;100722.78;4998596;28;20397;-84
2022/03/29 01:13:07;;;;;;;40.92;21.15;;;;;;;9.76;54.27;100733.91;4981069;28;20513;-84
2022/03/29 01:15:36;;;;;;;42.35;23.15;;;;;;;9.58;54.80;100725.94;4998563;28;20043;-83
2022/03/29 01:18:01;;;;;;;45.53;22.23;;;;;;;9.59;54.59;100717.03;4981332;28;20061;-82
2022/03/29 01:20:28;;;;;;;44.30;23.35;;;;;;;9.16;56.17;100714.28;5004338;28;20482;-83
2022/03/29 01:22:57;;;;;;;49.10;22.75;;;;;;;9.12;56.73;100715.53;5011046;28;20066;-82
2022/03/29 01:25:30;;;;;;;44.65;23.95;;;;;;;9.30;55.51;100713.78;5009811;28;20109;-83
2022/03/29 01:27:58;;;;;;;43.00;23.02;;;;;;;9.07;55.74;100694.84;5007729;28;20049;-83
2022/03/29 01:30:27;;;;;;;40.45;22.13;;;;;;;8.89;56.11;100699.25;5009419;28;20045;-82
2022/03/29 01:32:54;;;;;;;39.88;21.38;;;;;;;9.14;55.57;100684.50;5010906;28;20026;-82
2022/03/29 01:35:22;;;;;;;38.83;21.60;;;;;;;9.30;55.37;100679.38;4999868;28;20038;-82
2022/03/29 01:37:57;;;;;;;44.17;21.33;;;;;;;9.48;54.16;100677.56;5001034;28;20046;-82
2022/03/29 01:40:30;;;;;;;38.83;22.23;;;;;;;9.43;54.30;100673.72;4973248;28;20038;-84
2022/03/29 01:42:59;;;;;;;45.05;22.42;;;;;;;9.30;54.52;100658.22;5002932;28;20034;-86
2022/03/29 01:45:29;;;;;;;47.85;22.90;;;;;;;9.03;55.75;100658.28;4985479;28;20042;-83
2022/03/29 01:47:54;;;;;;;40.58;23.23;;;;;;;8.97;55.73;100646.50;4984994;28;20038;-85
2022/03/29 01:50:23;;;;;;;43.10;23.80;;;;;;;9.00;56.00;100635.63;5001806;28;20485;-83
2022/03/29 01:52:49;;;;;;;43.17;22.40;;;;;;;8.82;56.15;100640.88;4983368;28;20133;-83
2022/03/29 01:55:18;;;;;;;41.85;23.70;;;;;;;8.61;57.27;100635.00;5001826;28;20478;-83
2022/03/29 01:57:45;;;;;;;48.30;22.10;;;;;;;8.45;58.38;100637.41;5001140;28;20038;-82
2022/03/29 02:00:33;;;;;;;46.28;22.73;;;;;;;8.26;58.89;100638.31;4968267;28;20042;-82
2022/03/29 02:03:06;;;;;;;48.03;23.38;;;;;;;8.41;58.11;100627.31;5000832;28;20062;-81
2022/03/29 02:05:32;;;;;;;45.53;21.95;;;;;;;8.29;58.26;100630.13;4983673;28;20394;-83
2022/03/29 02:08:02;;;;;;;38.75;21.85;;;;;;;8.30;58.76;100620.41;5002449;28;20047;-83
2022/03/29 02:10:27;;;;;;;41.80;23.30;;;;;;;8.43;58.12;100623.53;5002392;28;20030;-83
2022/03/29 02:12:54;;;;;;;41.28;22.83;;;;;;;8.01;59.28;100624.91;4984370;28;20399;-83
2022/03/29 02:15:20;;;;;;;41.67;22.77;;;;;;;8.24;58.73;100620.97;5002832;28;20108;-83
2022/03/29 02:17:48;;;;;;;39.55;22.77;;;;;;;7.90;60.19;100611.88;5001832;28;20046;-85
2022/03/29 02:20:15;;;;;;;43.10;21.13;;;;;;;8.07;59.34;100608.50;5001890;28;20038;-81
2022/03/29 02:22:41;;;;;;;38.30;21.08;;;;;;;8.45;57.38;100611.00;5002034;28;20030;-83
2022/03/29 02:25:10;;;;;;;44.83;22.65;;;;;;;8.29;58.19;100597.59;5001288;28;20065;-84
2022/03/29 02:27:43;;;;;;;43.55;22.75;;;;;;;8.23;58.15;100606.09;5001246;28;20034;-84
2022/03/29 02:30:14;;;;;;;38.75;21.25;;;;;;;8.21;58.14;100616.81;5003515;28;20038;-82
2022/03/29 02:32:40;;;;;;;42.83;22.80;;;;;;;8.14;57.85;100609.59;4967345;28;20038;-81
2022/03/29 02:35:07;;;;;;;40.28;22.23;;;;;;;8.14;57.54;100609.59;5002233;28;20038;-83
2022/03/29 02:37:33;;;;;;;48.25;23.17;;;;;;;8.36;56.91;100603.97;5002294;28;20058;-83
2022/03/29 02:39:59;;;;;;;41.08;22.13;;;;;;;8.34;56.38;100595.38;4986033;28;20084;-84
2022/03/29 02:42:25;;;;;;;39.40;21.23;;;;;;;8.40;55.54;100605.34;4985624;28;20085;-82
2022/03/29 02:44:51;;;;;;;46.00;23.63;;;;;;;8.22;56.36;100591.22;5002446;28;20038;-86
2022/03/29 02:47:16;;;;;;;41.63;21.75;;;;;;;8.30;55.96;100594.00;4983198;28;20034;-82
2022/03/29 02:49:42;;;;;;;41.03;21.98;;;;;;;8.14;56.30;100588.47;4999636;28;20066;-84
2022/03/29 02:52:07;;;;;;;40.92;21.67;;;;;;;8.04;56.75;100585.03;5000326;28;20026;-86
2022/03/29 02:54:36;;;;;;;43.70;21.95;;;;;;;7.86;57.40;100573.56;5000457;28;20080;-82
2022/03/29 02:57:01;;;;;;;46.15;22.08;;;;;;;7.65;58.26;100574.59;5000083;28;20038;-80
2022/03/29 02:59:28;;;;;;;44.15;21.50;;;;;;;7.68;58.10;100581.41;4982939;28;20045;-82
2022/03/29 03:01:53;;;;;;;43.95;21.73;;;;;;;7.57;58.61;100578.91;5000307;28;20034;-81
2022/03/29 03:04:29;;;;;;;43.15;21.48;;;;;;;7.55;59.16;100571.16;4985840;28;20042;-83
2022/03/29 03:06:54;;;;;;;49.75;21.25;;;;;;;7.47;60.08;100578.94;5000688;28;20042;-82
2022/03/29 03:09:20;;;;;;;42.33;22.10;;;;;;;7.50;60.21;100578.63;4999399;28;20393;-84
2022/03/29 03:11:45;;;;;;;36.17;19.88;;;;;;;7.47;60.37;100568.38;5001471;28;20458;-82
2022/03/29 03:14:11;;;;;;;39.55;22.10;;;;;;;7.45;61.02;100578.25;4998652;28;20034;-83
2022/03/29 03:16:37;;;;;;;41.20;21.52;;;;;;;7.57;60.29;100579.75;4982274;28;20042;-82
2022/03/29 03:19:02;;;;;;;44.20;21.33;;;;;;;7.53;60.23;100573.09;5001417;28;20041;-81
2022/03/29 03:21:28;;;;;;;44.08;21.58;;;;;;;7.65;59.25;100571.13;4984184;28;20046;-83
2022/03/29 03:23:57;;;;;;;39.22;21.05;;;;;;;7.69;59.39;100568.03;4983206;28;20041;-82
2022/03/29 03:26:23;;;;;;;43.45;21.20;;;;;;;7.90;59.17;100572.31;5000416;28;20039;-84
2022/03/29 03:28:49;;;;;;;43.00;21.17;;;;;;;8.10;58.45;100565.97;5002577;28;20041;-84
2022/03/29 03:31:14;;;;;;;40.78;21.75;;;;;;;7.94;58.84;100563.97;5002491;28;20022;-84
2022/03/29 03:33:40;;;;;;;48.42;21.75;;;;;;;7.86;59.59;100558.56;5000376;28;20093;-82
2022/03/29 03:36:09;;;;;;;41.67;21.48;;;;;;;7.96;59.54;100558.53;5000714;28;20034;-82
2022/03/29 03:38:34;;;;;;;41.58;20.40;;;;;;;8.10;59.72;100560.69;5000681;28;20078;-81
2022/03/29 03:41:03;;;;;;;41.00;21.20;;;;;;;8.33;58.41;100551.47;4982523;28;20030;-83
2022/03/29 03:43:31;;;;;;;42.53;21.65;;;;;;;8.55;57.77;100543.13;4999673;28;20117;-82
2022/03/29 03:46:00;;;;;;;38.13;20.25;;;;;;;8.52;55.96;100546.06;5001194;28;20029;-82
2022/03/29 03:48:26;;;;;;;45.60;21.77;;;;;;;8.41;57.20;100543.66;5001805;28;20038;-83
2022/03/29 03:50:51;;;;;;;41.92;21.33;;;;;;;8.61;56.51;100545.19;4999933;28;20397;-83
2022/03/29 03:53:17;;;;;;;34.22;19.30;;;;;;;8.40;57.42;100538.50;4983095;28;20034;-83
2022/03/29 03:55:42;;;;;;;41.28;20.55;;;;;;;8.54;56.01;100545.94;4999659;28;20434;-84
2022/03/29 03:58:08;;;;;;;36.25;19.45;;;;;;;8.71;55.74;100540.69;5000280;28;20066;-82
2022/03/29 04:00:36;;;;;;;36.97;19.85;;;;;;;8.66;55.18;100540.28;4999837;28;20030;-84
2022/03/29 04:03:09;;;;;;;37.38;19.52;;;;;;;7.80;57.29;100541.50;5000581;28;20453;-84
2022/03/29 04:05:36;;;;;;;43.85;20.85;;;;;;;7.69;59.06;100541.66;5000787;28;20033;-83
2022/03/29 04:08:02;;;;;;;43.97;21.15;;;;;;;7.64;60.73;100536.00;5002110;28;20074;-83
2022/03/29 04:10:27;;;;;;;47.72;23.17;;;;;;;7.71;60.50;100526.56;5002289;28;20038;-88
2022/03/29 04:12:53;;;;;;;42.47;22.50;;;;;;;7.58;60.78;100533.09;5002252;28;20045;-84
2022/03/29 04:15:18;;;;;;;41.05;21.00;;;;;;;7.61;61.04;100531.03;4983531;28;20045;-82
2022/03/29 04:17:44;;;;;;;46.80;22.88;;;;;;;7.83;60.20;100521.91;5001721;28;20038;-86
2022/03/29 04:20:10;;;;;;;43.22;22.67;;;;;;;7.82;60.48;100530.81;4984187;28;20507;-84
2022/03/29 04:22:36;;;;;;;48.53;23.35;;;;;;;7.58;61.61;100536.59;5002360;28;20037;-83
2022/03/29 04:25:02;;;;;;;44.58;23.52;;;;;;;7.62;61.17;100540.56;5001145;28;20046;-84
2022/03/29 04:27:30;;;;;;;50.13;23.55;;;;;;;7.27;62.37;100530.66;5003867;28;20042;-82
2022/03/29 04:29:56;;;;;;;46.28;23.00;;;;;;;6.95;63.67;100530.13;5010592;28;20030;-81
2022/03/29 04:32:24;;;;;;;44.33;22.55;;;;;;;6.99;63.91;100518.34;5012244;28;20110;-81
2022/03/29 04:34:49;;;;;;;45.83;21.50;;;;;;;6.97;62.47;100514.16;5018027;28;20042;-79
2022/03/29 04:37:15;;;;;;;46.55;21.35;;;;;;;7.19;61.32;100519.16;5012737;28;20041;-83
2022/03/29 04:39:40;;;;;;;38.15;20.75;;;;;;;7.40;61.22;100514.53;5002608;28;20035;-82
2022/03/29 04:42:07;;;;;;;41.63;21.92;;;;;;;7.48;60.63;100519.13;5000973;28;20030;-82
2022/03/29 04:44:34;;;;;;;41.03;21.70;;;;;;;7.43;60.17;100513.41;4976182;28;20030;-82
2022/03/29 04:47:00;;;;;;;43.85;20.88;;;;;;;7.34;59.73;100523.03;4994394;28;20026;-81
2022/03/29 04:49:25;;;;;;;43.75;21.30;;;;;;;7.40;59.79;100516.34;5009245;28;20039;-83
2022/03/29 04:51:51;;;;;;;36.88;20.45;;;;;;;7.33;59.07;100523.97;4975203;28;20030;-84
2022/03/29 04:54:17;;;;;;;35.83;19.63;;;;;;;7.46;56.96;100524.50;5013218;28;20018;-83
2022/03/29 04:56:43;;;;;;;32.33;18.02;;;;;;;7.67;55.25;100527.81;4996856;28;20080;-84
2022/03/29 05:01:57;;;;;;;42.83;20.17;;;;;;;7.21;57.67;100525.97;5130763;23;20093;-82
2022/03/29 05:04:29;;;;;;;37.10;19.48;;;;;;;7.31;56.90;100533.84;4978822;28;20027;-80
2022/03/29 05:06:55;;;;;;;29.98;14.07;;;;;;;7.49;55.49;100532.13;4963092;28;20019;-83
2022/03/29 05:09:20;;;;;;;36.50;18.90;;;;;;;7.41;56.17;100532.03;4995147;28;20035;-84
2022/03/29 05:11:59;;;;;;;39.28;19.20;;;;;;;7.52;56.19;100529.25;5002366;23;20042;-85
2022/03/29 05:14:28;;;;;;;39.38;19.65;;;;;;;7.57;55.95;100527.00;4993018;28;20063;-86
2022/03/29 05:16:54;;;;;;;44.53;19.73;;;;;;;7.47;56.23;100531.47;4994751;28;20058;-89
2022/03/29 05:19:22;;;;;;;43.03;19.92;;;;;;;7.72;55.19;100536.09;4992366;28;20094;-83
2022/03/29 05:21:48;;;;;;;45.42;21.50;;;;;;;7.74;55.00;100528.91;4993732;28;20046;-85
2022/03/29 05:24:47;;;;;;;42.20;20.17;;;;;;;7.85;54.96;100529.69;4974677;28;20034;-83
2022/03/29 05:27:22;;;;;;;41.97;19.67;;;;;;;7.77;55.81;100525.13;4992136;28;20502;-83
2022/03/29 05:29:48;;;;;;;44.95;22.00;;;;;;;7.58;56.79;100533.09;4990593;28;20050;-84
2022/03/29 05:32:18;;;;;;;47.10;22.20;;;;;;;7.45;57.41;100538.69;4955050;28;20422;-87
2022/03/29 05:34:48;;;;;;;46.10;22.65;;;;;;;7.66;57.41;100530.56;4992130;28;20039;-85
2022/03/29 05:37:47;;;;;;;42.08;20.85;;;;;;;7.54;58.03;100532.56;4989006;28;20146;-86
2022/03/29 05:40:25;;;;;;;38.90;21.95;;;;;;;7.65;58.18;100532.41;4957714;28;20042;-87
2022/03/29 05:42:55;;;;;;;63.22;25.80;;;;;;;7.87;59.20;100543.56;4989149;28;20043;-87
2022/03/29 05:45:41;;;;;;;53.58;24.60;;;;;;;7.80;59.46;100541.50;4989724;28;20386;-86
2022/03/29 05:50:55;;;;;;;64.50;26.55;;;;;;;7.51;61.28;100546.03;4987623;28;20414;-86
2022/03/29 05:53:21;;;;;;;52.83;26.30;;;;;;;7.73;62.36;100555.41;4989404;28;20090;-83
2022/03/29 05:55:53;;;;;;;61.65;28.45;;;;;;;7.68;63.00;100552.38;4978670;28;20039;-84
2022/03/29 05:58:22;;;;;;;52.95;28.60;;;;;;;7.49;64.13;100555.88;4995468;28;20045;-85
2022/03/29 06:03:32;;;;;;;59.25;28.17;;;;;;;7.28;65.18;100558.69;4722775;26;20046;-86
2022/03/29 06:06:01;;;;;;;55.30;27.63;;;;;;;7.17;65.59;100556.19;4987033;28;20486;-84
2022/03/29 06:08:27;;;;;;;57.05;29.00;;;;;;;7.40;66.82;100566.44;4973965;28;20043;-84
2022/03/29 06:10:58;;;;;;;59.17;27.08;;;;;;;7.43;66.24;100560.88;4975122;28;20057;-83
2022/03/29 06:13:25;;;;;;;62.28;30.73;;;;;;;7.32;71.28;100561.88;4972834;28;20099;-87
2022/03/29 06:15:54;;;;;;;80.20;36.53;;;;;;;7.19;79.68;100561.34;4991395;28;20039;-85
2022/03/29 06:18:21;;;;;;;97.20;42.33;;;;;;;6.81;90.76;100558.69;4989513;28;20054;-85
2022/03/29 06:20:48;;;;;;;100.05;45.08;;;;;;;6.71;95.57;100559.50;4975103;28;20042;-83
2022/03/29 06:23:16;;;;;;;108.28;47.47;;;;;;;6.78;100.00;100564.22;4987869;28;20042;-83
2022/03/29 06:25:50;;;;;;;125.50;50.50;;;;;;;6.66;100.00;100571.44;4989737;28;20031;-85
2022/03/29 06:28:18;;;;;;;137.10;54.38;;;;;;;6.81;100.00;100562.16;4988456;28;20031;-87
2022/03/29 06:30:46;;;;;;;153.40;55.55;;;;;;;6.96;100.00;100567.84;4993786;28;20047;-85
2022/03/29 06:33:23;;;;;;;141.00;56.33;;;;;;;6.99;100.00;100562.31;4989876;28;20082;-86
2022/03/29 06:35:56;;;;;;;156.90;56.38;;;;;;;6.96;100.00;100567.84;5093678;23;20477;-84
2022/03/29 06:38:53;;;;;;;168.13;60.10;;;;;;;7.00;100.00;100563.94;4979436;28;20023;-90
2022/03/29 06:42:00;;;;;;;161.07;58.65;;;;;;;7.00;100.00;100563.94;4974482;28;20074;-85
2022/03/29 06:47:11;;;;;;;168.95;62.60;;;;;;;7.04;100.00;100570.63;4987603;28;20117;-83
2022/03/29 06:49:49;;;;;;;174.30;62.53;;;;;;;7.15;100.00;100567.84;4967868;28;20054;-83
2022/03/29 06:52:15;;;;;;;174.00;64.10;;;;;;;7.09;100.00;100576.31;4953269;28;20059;-84
2022/03/29 06:54:48;;;;;;;192.77;66.75;;;;;;;7.10;100.00;100575.31;4990096;28;20058;-82
2022/03/29 06:57:15;;;;;;;;;;;;;;;7.24;100.00;100577.56;4966382;29;20091;-86
2022/03/29 06:59:43;;;;;;;173.88;62.45;;;;;;;7.14;100.00;100582.00;4954572;29;19925;-83
2022/03/29 07:02:22;;;;;;;207.15;70.90;;;;;;;7.11;100.00;100577.84;4958330;29;20027;-83
2022/03/29 07:07:37;;;;;;;186.32;68.40;;;;;;;7.34;100.00;100588.94;4986649;23;20115;-82
2022/03/29 07:13:36;;;;;;;180.60;65.95;;;;;;;7.43;100.00;100588.09;4975161;28;20039;-82
2022/03/29 07:16:17;;;;;;;194.23;69.47;;;;;;;7.40;100.00;100580.47;4973857;28;20035;-82
2022/03/29 07:18:43;;;;;;;192.25;67.45;;;;;;;7.67;100.00;100585.00;4951686;29;20062;-84
2022/03/29 07:21:12;;;;;;;196.63;69.22;;;;;;;7.66;100.00;100591.25;4937466;29;20483;-86
2022/03/29 07:23:40;;;;;;;185.10;67.22;;;;;;;7.61;100.00;100596.13;4946072;29;20043;-84
2022/03/29 07:26:11;;;;;;;176.75;68.45;;;;;;;7.64;100.00;100595.84;4959568;28;20102;-85
2022/03/29 07:28:47;;;;;;;190.35;67.45;;;;;;;7.69;100.00;100599.69;4981978;28;20096;-86
2022/03/29 07:31:14;;;;;;;195.48;68.57;;;;;;;7.73;100.00;100590.53;4967500;29;20050;-82
2022/03/29 07:34:03;;;;;;;181.40;65.43;;;;;;;8.07;100.00;100592.66;4966027;28;20043;-83
2022/03/29 07:36:29;;;;;;;178.23;65.85;;;;;;;8.14;100.00;100593.75;4946164;29;20107;-84
2022/03/29 07:38:59;;;;;;;190.85;67.07;;;;;;;7.98;100.00;100596.19;4957623;28;20028;-86
2022/03/29 07:41:31;;;;;;;178.52;65.05;;;;;;;8.00;100.00;100596.84;4961382;29;20031;-82
2022/03/29 07:44:07;;;;;;;180.23;67.70;;;;;;;8.08;100.00;100589.06;4934336;29;20062;-82
2022/03/29 07:46:33;;;;;;;167.88;63.05;;;;;;;8.06;100.00;100597.13;4980700;28;20098;-83
2022/03/29 07:48:58;;;;;;;168.23;62.47;;;;;;;8.19;100.00;100591.50;4979767;28;20027;-84
2022/03/29 07:51:24;;;;;;;186.18;64.82;;;;;;;8.35;100.00;100593.56;4963033;28;20066;-84
2022/03/29 07:53:49;;;;;;;168.20;62.75;;;;;;;8.49;100.00;100588.63;4956226;28;20039;-85
2022/03/29 07:56:15;;;;;;;168.63;61.63;;;;;;;8.70;100.00;100591.00;4951836;28;20129;-86
2022/03/29 07:58:43;;;;;;;148.98;60.50;;;;;;;8.70;100.00;100597.13;4943717;29;20107;-83
2022/03/29 08:01:09;;;;;;;156.73;57.05;;;;;;;8.81;100.00;100589.00;4961013;29;20027;-82
2022/03/29 08:03:35;;;;;;;147.98;55.17;;;;;;;8.76;100.00;100583.31;4976326;28;20537;-84
2022/03/29 08:06:06;;;;;;;143.32;54.80;;;;;;;8.95;100.00;100590.28;4963365;28;20063;-84
2022/03/29 08:08:34;;;;;;;129.60;52.45;;;;;;;8.89;100.00;100582.13;4964171;28;20035;-89
2022/03/29 08:11:01;;;;;;;130.70;53.50;;;;;;;9.02;100.00;100575.47;4983230;28;20441;-86
2022/03/29 08:13:27;;;;;;;118.03;49.72;;;;;;;9.12;100.00;100570.94;4983914;28;20019;-86
2022/03/29 08:15:57;;;;;;;110.28;44.00;;;;;;;9.21;100.00;100569.22;4966512;28;20050;-84
2022/03/29 08:18:24;;;;;;;113.30;49.35;;;;;;;9.23;100.00;100572.53;4947063;28;20388;-83
2022/03/29 08:20:58;;;;;;;114.68;47.15;;;;;;;9.24;100.00;100563.63;4940967;29;20071;-85
2022/03/29 08:23:27;;;;;;;118.13;48.80;;;;;;;9.16;100.00;100563.56;4940762;29;20483;-87
2022/03/29 08:26:15;;;;;;;115.10;47.72;;;;;;;9.30;100.00;100560.38;4927818;29;20040;-87
2022/03/29 08:28:41;;;;;;;103.68;45.53;;;;;;;9.49;100.00;100568.13;4924586;29;20043;-85
2022/03/29 08:31:09;;;;;;;107.10;45.20;;;;;;;9.66;100.00;100569.06;4925296;29;20035;-84
2022/03/29 08:33:35;;;;;;;107.25;45.33;;;;;;;9.71;100.00;100572.91;4923883;29;20039;-85
2022/03/29 08:36:00;;;;;;;96.15;43.53;;;;;;;9.83;100.00;100571.69;4960887;28;20049;-84
2022/03/29 08:41:14;;;;;;;99.40;44.35;;;;;;;9.69;100.00;100553.72;5383265;23;20043;-82
2022/03/29 08:43:49;;;;;;;104.93;43.55;;;;;;;9.99;100.00;100554.22;4978820;28;20058;-81
2022/03/29 08:46:21;;;;;;;105.30;43.58;;;;;;;9.99;100.00;100559.50;4979219;28;20046;-87
2022/03/29 08:48:51;;;;;;;103.80;43.15;;;;;;;10.04;100.00;100554.59;4979586;28;20057;-83
2022/03/29 08:51:21;;;;;;;110.07;46.03;;;;;;;10.07;100.00;100554.28;4979215;28;20054;-83
2022/03/29 08:53:50;;;;;;;102.15;43.25;;;;;;;10.41;100.00;100546.34;4980787;28;20035;-89
2022/03/29 08:56:15;;;;;;;92.70;41.42;;;;;;;10.68;100.00;100557.50;4964524;28;20141;-89
2022/03/29 08:58:43;;;;;;;90.28;42.13;;;;;;;10.53;100.00;100561.78;4965915;28;20058;-85
2022/03/29 09:01:10;;;;;;;93.57;41.58;;;;;;;10.66;100.00;100556.84;4980331;28;20031;-83
2022/03/29 09:03:36;;;;;;;93.82;42.72;;;;;;;10.93;100.00;100565.53;4983391;28;20030;-86
2022/03/29 09:06:12;;;;;;;104.68;44.90;;;;;;;11.17;100.00;100571.66;4964121;28;20093;-80
2022/03/29 09:08:45;;;;;;;102.07;44.78;;;;;;;11.35;100.00;100574.19;4978865;28;20047;-87
2022/03/29 09:11:17;;;;;;;102.40;44.65;;;;;;;11.46;100.00;100573.84;4982801;28;20053;-85
2022/03/29 09:13:43;;;;;;;94.22;43.05;;;;;;;11.63;100.00;100564.91;4980370;28;20062;-86
2022/03/29 09:16:31;;;;;;;97.88;43.83;;;;;;;11.42;100.00;100567.22;4979916;28;20039;-84
2022/03/29 09:19:09;;;;;;;100.72;43.80;;;;;;;12.10;100.00;100564.13;4980994;28;20054;-83
2022/03/29 09:21:43;;;;;;;99.78;45.25;;;;;;;12.46;100.00;100565.34;4970820;28;20095;-86
2022/03/29 09:24:16;;;;;;;91.18;43.13;;;;;;;13.00;100.00;100560.88;4958915;29;20043;-84
2022/03/29 09:26:45;;;;;;;89.78;42.80;;;;;;;13.43;98.81;100552.25;4940941;29;20046;-84
2022/03/29 09:29:33;;;;;;;88.13;43.17;;;;;;;14.18;90.57;100562.00;4944854;29;20047;-87
2022/03/29 09:32:12;;;;;;;94.78;43.88;;;;;;;14.34;90.99;100557.34;4928086;29;20074;-84
2022/03/29 09:34:38;;;;;;;86.25;43.22;;;;;;;14.68;88.09;100548.69;4943355;29;20043;-82
2022/03/29 09:37:05;;;;;;;95.03;45.13;;;;;;;14.37;89.83;100558.78;4966681;29;20146;-84
2022/03/29 09:39:37;;;;;;;82.97;39.78;;;;;;;14.79;86.60;100550.06;4950133;29;20032;-84
2022/03/29 09:42:14;;;;;;;92.47;44.88;;;;;;;14.69;87.06;100549.53;4962153;29;20475;-84
2022/03/29 09:44:48;;;;;;;84.45;42.28;;;;;;;15.12;83.36;100555.72;4962774;28;20062;-86
2022/03/29 09:47:22;;;;;;;82.55;42.63;;;;;;;15.70;79.65;100546.63;4958078;29;20054;-85
2022/03/29 09:50:06;;;;;;;84.65;43.67;;;;;;;15.94;76.82;100552.31;4962226;29;20036;-84
2022/03/29 09:52:40;;;;;;;87.47;43.47;;;;;;;15.38;83.28;100545.28;4951294;29;20047;-84
2022/03/29 09:55:07;;;;;;;81.65;43.20;;;;;;;15.99;77.87;100541.88;4965580;29;20035;-84
2022/03/29 09:57:47;;;;;;;86.25;43.55;;;;;;;15.87;80.59;100535.44;4947538;29;20038;-84
2022/03/29 10:00:24;;;;;;;82.25;42.95;;;;;;;16.44;77.90;100528.91;4964435;29;20450;-82
2022/03/29 10:02:50;;;;;;;84.32;42.83;;;;;;;16.38;77.04;100530.56;4946644;29;20043;-84
2022/03/29 10:05:24;;;;;;;92.55;46.17;;;;;;;16.50;76.02;100520.13;4966271;28;20031;-85
2022/03/29 10:10:48;;;;;;;88.05;46.10;;;;;;;16.88;74.16;100515.94;4966547;28;20386;-84
2022/03/29 10:13:30;;;;;;;88.32;45.50;;;;;;;16.84;75.01;100506.66;4976386;28;20050;-90
2022/03/29 10:16:04;;;;;;;80.97;44.73;;;;;;;17.58;71.27;100509.19;4962415;28;20091;-85
2022/03/29 10:18:34;;;;;;;82.75;44.58;;;;;;;17.92;69.63;100511.63;4991687;28;20045;-80
2022/03/29 10:21:01;;;;;;;86.13;44.53;;;;;;;17.75;69.13;100494.31;4994855;28;20054;-82
2022/03/29 10:23:28;;;;;;;82.60;44.17;;;;;;;17.80;68.80;100497.19;4991421;28;20039;-82
2022/03/29 10:25:56;;;;;;;76.60;41.70;;;;;;;18.22;66.56;100489.66;4979156;28;20035;-81
2022/03/29 10:31:51;;;;;;;79.20;42.13;;;;;;;18.70;63.86;100488.19;4685497;23;20470;-83
2022/03/29 10:35:01;;;;;;;74.68;41.88;;;;;;;18.39;64.19;100474.72;4980979;28;20062;-81
2022/03/29 10:40:55;;;;;;;74.85;40.65;;;;;;;17.90;63.68;100460.03;5006070;23;20043;-83
2022/03/29 10:44:15;;;;;;;;;;;;;;;;;;;;;
2022/03/29 10:49:55;;;;;;;66.90;30.90;;;;;;;17.93;64.22;100448.88;2766943;23;20055;-81
2022/03/29 10:52:21;;;;;;;78.80;39.25;;;;;;;17.78;64.42;100440.28;4998152;28;20103;-82
2022/03/29 10:58:26;;;;;;;75.80;40.03;;;;;;;18.26;60.39;100426.50;4993970;28;20039;-83
2022/03/29 11:01:17;;;;;;;68.18;39.42;;;;;;;18.43;60.10;100427.63;5034443;23;20050;-82
2022/03/29 11:14:58;;;;;;;71.93;39.95;;;;;;;18.92;61.65;100403.56;1205637;23;20337;-82
2022/03/29 11:21:02;;;;;;;71.28;39.85;;;;;;;19.80;57.75;100396.09;4653952;26;20054;-82
2022/03/29 11:24:13;;;;;;;71.45;39.28;;;;;;;19.04;60.08;100388.38;4910904;29;20040;-82
2022/03/29 11:26:58;;;;;;;69.43;39.70;;;;;;;19.55;58.18;100384.59;4917284;29;20056;-86
2022/03/29 11:29:35;;;;;;;73.43;38.88;;;;;;;19.69;58.99;100374.53;4920490;29;20044;-86
2022/03/29 11:35:26;;;;;;;69.63;38.25;;;;;;;19.69;57.79;100366.47;5275072;23;20123;-84
2022/03/29 11:38:12;;;;;;;71.63;38.80;;;;;;;20.24;56.05;100361.78;4975812;28;20023;-87
2022/03/29 11:40:43;;;;;;;72.05;37.78;;;;;;;20.78;53.42;100360.78;4954932;29;20072;-86
2022/03/29 11:43:24;;;;;;;70.50;39.00;;;;;;;20.74;52.69;100362.28;4957109;29;20172;-85
2022/03/29 11:45:53;;;;;;;76.20;38.78;;;;;;;19.59;54.64;100359.72;4957659;29;20075;-84
2022/03/29 11:48:46;;;;;;;66.28;39.05;;;;;;;19.47;55.43;100352.63;4961769;29;20107;-85
2022/03/29 11:51:12;;;;;;;70.72;39.08;;;;;;;19.85;54.75;100347.81;4968818;29;20099;-85
2022/03/29 11:53:55;;;;;;;67.43;40.38;;;;;;;20.25;53.08;100339.22;4956511;29;20034;-84
2022/03/29 11:56:26;;;;;;;62.72;37.65;;;;;;;20.70;51.11;100340.38;4974593;28;20179;-84
2022/03/29 11:59:31;;;;;;;66.07;36.17;;;;;;;20.76;49.55;100328.69;4947064;29;20103;-84
2022/03/29 12:02:51;;;;;;;68.03;38.63;;;;;;;20.51;50.86;100314.63;4956825;29;20036;-83
2022/03/29 12:05:41;;;;;;;68.82;40.17;;;;;;;19.30;55.54;100311.22;4936609;28;20034;-83
2022/03/29 12:08:51;;;;;;;69.05;39.80;;;;;;;18.87;56.89;100309.41;4996672;28;20070;-84
2022/03/29 12:12:03;;;;;;;65.70;37.75;;;;;;;18.49;57.88;100293.38;4919425;29;20118;-81
2022/03/29 12:14:35;;;;;;;72.10;39.72;;;;;;;17.99;60.90;100297.06;4863319;29;20121;-84
2022/03/29 12:17:07;;;;;;;73.30;40.50;;;;;;;17.87;61.59;100290.72;4870266;29;20041;-82
2022/03/29 12:19:36;;;;;;;68.38;39.03;;;;;;;17.45;63.02;100287.59;4885967;29;20057;-83
2022/03/29 12:22:11;;;;;;;62.58;37.40;;;;;;;17.33;63.74;100277.78;4855538;29;20046;-83
2022/03/29 12:24:47;;;;;;;66.25;38.13;;;;;;;17.30;61.43;100275.53;4912725;29;20052;-82